createdAt,value
2022-10-11T06:12:54.340Z,2.65
2022-10-11T06:15:22.017Z,3.15
2022-10-11T06:17:48.989Z,2.90
2022-10-11T06:20:15.988Z,2.90
2022-10-11T06:22:43.074Z,2.90
2022-10-11T06:25:10.216Z,2.70
2022-10-11T06:27:43.331Z,3.08
2022-10-11T06:30:10.588Z,2.88
2022-10-11T06:32:37.670Z,3.10
2022-10-11T06:35:05.980Z,2.85
2022-10-11T06:37:33.057Z,3.10
2022-10-11T06:40:00.368Z,3.10
2022-10-11T06:42:27.574Z,3.15
2022-10-11T06:44:54.581Z,3.30
2022-10-11T06:47:22.763Z,3.40
2022-10-11T06:49:49.815Z,3.20
2022-10-11T06:52:17.445Z,3.40
2022-10-11T06:54:45.563Z,3.33
2022-10-11T06:57:12.729Z,3.30
2022-10-11T06:59:39.994Z,3.33
2022-10-11T07:02:08.670Z,3.38
2022-10-11T07:04:35.676Z,3.50
2022-10-11T07:07:02.733Z,3.20
2022-10-11T07:09:30.787Z,3.47
2022-10-11T07:11:57.833Z,3.22
2022-10-11T07:14:25.225Z,3.30
2022-10-11T07:16:52.255Z,3.20
2022-10-11T07:19:19.760Z,3.20
2022-10-11T07:21:46.963Z,3.08
2022-10-11T07:24:14.040Z,3.42
2022-10-11T07:26:41.267Z,3.30
2022-10-11T07:29:09.156Z,3.50
2022-10-11T07:31:37.389Z,3.28
2022-10-11T07:34:05.598Z,3.20
2022-10-11T07:36:32.799Z,3.20
2022-10-11T07:38:59.827Z,3.35
2022-10-11T07:41:27.155Z,3.20
2022-10-11T07:43:56.959Z,3.40
2022-10-11T07:46:24.030Z,3.20
2022-10-11T07:48:53.677Z,3.33
2022-10-11T07:51:22.530Z,3.42
2022-10-11T07:54:08.901Z,3.40
2022-10-11T07:56:43.896Z,3.53
2022-10-11T07:59:14.987Z,3.30
2022-10-11T08:01:42.392Z,3.47
2022-10-11T08:04:09.601Z,3.37
2022-10-11T08:06:39.858Z,3.20
2022-10-11T08:09:11.037Z,3.53
2022-10-11T08:11:38.835Z,3.55
2022-10-11T08:14:14.963Z,3.30
2022-10-11T08:16:42.593Z,3.47
2022-10-11T08:19:13.071Z,3.30
2022-10-11T08:21:41.745Z,3.53
2022-10-11T08:24:09.120Z,3.53
2022-10-11T08:26:36.885Z,3.42
2022-10-11T08:29:05.131Z,3.50
2022-10-11T08:31:35.700Z,3.83
2022-10-11T08:34:03.859Z,3.47
2022-10-11T08:36:32.147Z,3.50
2022-10-11T08:38:59.928Z,3.70
2022-10-11T08:44:58.713Z,3.60
2022-10-11T08:47:34.345Z,3.40
2022-10-11T08:50:03.064Z,3.78
2022-10-11T08:52:49.407Z,3.75
2022-10-11T08:55:19.912Z,3.67
2022-10-11T08:57:49.322Z,3.58
2022-10-11T09:00:17.793Z,3.60
2022-10-11T09:03:08.476Z,3.70
2022-10-11T09:05:38.193Z,3.92
2022-10-11T09:15:12.429Z,4.13
2022-10-11T09:17:47.935Z,3.63
2022-10-11T09:23:05.958Z,3.70
2022-10-11T09:30:57.012Z,4.03
2022-10-11T09:51:57.927Z,3.80
2022-10-11T09:54:38.267Z,4.20
2022-10-11T09:57:05.372Z,3.90
2022-10-11T09:59:34.394Z,4.03
2022-10-11T10:02:19.522Z,3.83
2022-10-11T10:05:07.237Z,3.58
2022-10-11T10:07:35.396Z,3.30
2022-10-11T10:10:22.413Z,3.80
2022-10-11T10:12:54.775Z,3.80
2022-10-11T10:15:22.157Z,3.63
2022-10-11T10:17:50.038Z,3.83
2022-10-11T10:20:21.817Z,3.42
2022-10-11T10:22:49.109Z,3.70
2022-10-11T10:25:37.463Z,3.60
2022-10-11T10:28:23.881Z,3.90
2022-10-11T10:30:54.329Z,3.47
2022-10-11T10:33:23.110Z,3.88
2022-10-11T10:36:31.285Z,3.53
2022-10-11T10:39:06.676Z,3.47
2022-10-11T10:41:33.914Z,3.63
2022-10-11T10:44:01.394Z,3.45
2022-10-11T10:46:50.893Z,3.65
2022-10-11T10:49:55.559Z,3.17
2022-10-11T10:52:52.990Z,3.10
2022-10-11T10:55:33.642Z,2.87
2022-10-11T11:00:49.794Z,2.80
2022-10-11T11:03:22.141Z,3.00
2022-10-11T11:05:55.093Z,3.30
2022-10-11T11:08:32.223Z,3.17
2022-10-11T11:11:19.257Z,3.22
2022-10-11T11:13:56.605Z,3.75
2022-10-11T11:19:20.086Z,3.90
2022-10-11T11:29:55.204Z,3.85
2022-10-11T11:32:43.431Z,4.20
2022-10-11T11:35:18.138Z,3.30
2022-10-11T11:37:47.472Z,4.03
2022-10-11T11:40:17.100Z,4.00
2022-10-11T11:42:47.673Z,3.80
2022-10-11T11:48:01.616Z,4.07
2022-10-11T11:50:31.557Z,3.80
2022-10-11T11:53:05.017Z,4.00
2022-10-11T11:55:36.510Z,4.40
2022-10-11T11:58:23.514Z,4.43
2022-10-11T12:03:45.118Z,3.67
2022-10-11T12:09:01.627Z,3.15
2022-10-11T12:11:39.695Z,3.20
2022-10-11T12:14:27.524Z,3.00
2022-10-11T12:17:14.611Z,3.22
2022-10-11T12:19:42.639Z,3.08
2022-10-11T12:22:29.602Z,3.13
2022-10-11T12:24:57.660Z,2.92
2022-10-11T12:27:41.920Z,3.17
2022-10-11T12:30:28.875Z,2.63
2022-10-11T12:33:04.043Z,3.20
2022-10-11T12:38:25.848Z,3.13
2022-10-11T12:40:56.925Z,2.78
2022-10-11T12:43:26.363Z,3.22
2022-10-11T12:45:53.621Z,2.70
2022-10-11T12:51:14.832Z,2.60
2022-10-11T12:59:06.128Z,2.72
2022-10-11T13:01:35.632Z,2.40
2022-10-11T13:04:05.792Z,3.05
2022-10-11T13:06:38.387Z,2.30
2022-10-11T13:09:25.327Z,2.40
2022-10-11T13:11:55.780Z,2.67
2022-10-11T13:14:24.451Z,2.50
2022-10-11T13:17:09.114Z,2.70
2022-10-11T13:19:37.346Z,2.60
2022-10-11T13:22:06.321Z,2.65
2022-10-11T13:24:38.191Z,2.88
2022-10-11T13:27:05.793Z,2.90
2022-10-11T13:29:35.892Z,2.40
2022-10-11T13:32:05.685Z,3.17
2022-10-11T13:34:35.542Z,2.50
2022-10-11T13:37:02.895Z,2.67
2022-10-11T13:39:31.696Z,2.75
2022-10-11T13:42:30.159Z,2.80
2022-10-11T13:44:57.420Z,2.58
2022-10-11T13:47:26.903Z,2.67
2022-10-11T13:52:50.783Z,2.63
2022-10-11T13:55:23.766Z,2.50
2022-10-11T13:57:52.692Z,2.97
2022-10-11T14:00:31.795Z,2.63
2022-10-11T14:03:00.602Z,2.70
2022-10-11T14:05:30.801Z,3.90
2022-10-11T14:07:59.466Z,3.97
2022-10-11T14:10:26.757Z,3.97
2022-10-11T14:13:05.098Z,4.30
2022-10-11T14:15:36.776Z,4.10
2022-10-11T14:18:23.789Z,3.97
2022-10-11T14:20:50.840Z,3.88
2022-10-11T14:23:18.087Z,3.80
2022-10-11T14:25:45.264Z,3.67
2022-10-11T14:28:13.588Z,4.10
2022-10-11T14:30:42.888Z,3.42
2022-10-11T14:33:10.756Z,3.72
2022-10-11T14:35:37.992Z,2.90
2022-10-11T14:38:05.118Z,3.88
2022-10-11T14:40:32.256Z,3.67
2022-10-11T14:42:59.330Z,3.72
2022-10-11T14:45:26.403Z,3.90
2022-10-11T14:47:53.485Z,3.63
2022-10-11T14:50:25.937Z,3.28
2022-10-11T14:52:53.159Z,3.40
2022-10-11T14:55:20.609Z,3.25
2022-10-11T14:57:47.751Z,3.15
2022-10-11T15:00:17.710Z,3.47
2022-10-11T15:02:45.659Z,3.47
2022-10-11T15:05:12.793Z,3.93
2022-10-11T15:07:39.784Z,3.33
2022-10-11T15:10:15.701Z,3.40
2022-10-11T15:12:42.755Z,3.15
2022-10-11T15:15:14.715Z,3.28
2022-10-11T15:17:43.919Z,2.97
2022-10-11T15:20:16.546Z,3.03
2022-10-11T15:22:43.763Z,2.63
2022-10-11T15:25:10.802Z,3.10
2022-10-11T15:27:37.963Z,2.92
2022-10-11T15:30:14.028Z,2.88
2022-10-11T15:32:41.076Z,3.20
2022-10-11T15:35:08.572Z,2.83
2022-10-11T15:37:37.512Z,2.70
2022-10-11T15:40:14.510Z,2.70
2022-10-11T15:42:42.022Z,2.90
2022-10-11T15:45:09.427Z,2.80
2022-10-11T15:47:36.504Z,2.85
2022-10-11T15:50:04.133Z,3.10
2022-10-11T15:52:31.512Z,2.90
2022-10-11T15:54:58.536Z,3.10
2022-10-11T15:57:25.685Z,2.92
2022-10-11T15:59:52.727Z,2.83
2022-10-11T16:02:19.820Z,2.72
2022-10-11T16:04:46.821Z,2.95
2022-10-11T16:07:14.143Z,2.83
2022-10-11T16:09:41.211Z,2.63
2022-10-11T16:12:08.254Z,3.07
2022-10-11T16:21:41.465Z,2.72
2022-10-11T16:24:08.975Z,2.90
2022-10-11T16:26:36.015Z,2.75
2022-10-11T16:29:03.035Z,2.92
2022-10-11T16:31:30.100Z,2.60
2022-10-11T16:33:57.588Z,2.60
2022-10-11T16:36:32.393Z,2.95
2022-10-11T16:38:59.881Z,2.73
2022-10-11T16:41:26.901Z,2.70
2022-10-11T16:43:55.151Z,2.53
2022-10-11T16:46:22.773Z,2.78
2022-10-11T16:48:49.885Z,2.60
2022-10-11T16:51:16.901Z,2.83
2022-10-11T16:53:44.166Z,2.67
2022-10-11T16:56:12.353Z,2.38
2022-10-11T17:02:16.730Z,2.50
2022-10-11T17:04:43.935Z,2.70
2022-10-11T17:07:12.975Z,2.60
2022-10-11T17:09:44.013Z,2.72
2022-10-11T17:12:13.019Z,2.33
2022-10-11T17:14:40.823Z,2.55
2022-10-11T17:17:08.745Z,2.78
2022-10-11T17:19:35.889Z,2.40
2022-10-11T17:22:03.176Z,2.65
2022-10-11T17:24:30.233Z,2.85
2022-10-11T17:26:57.235Z,2.70
2022-10-11T17:29:24.213Z,2.40
2022-10-11T17:31:51.605Z,2.42
2022-10-11T17:34:18.682Z,2.40
2022-10-11T17:36:45.724Z,2.72
2022-10-11T17:39:31.004Z,2.50
2022-10-11T17:41:58.027Z,2.53
2022-10-11T17:44:25.020Z,2.28
2022-10-11T17:46:51.993Z,2.28
2022-10-11T17:52:52.042Z,2.55
2022-10-11T17:55:19.047Z,2.10
2022-10-11T17:57:46.074Z,2.53
2022-10-11T18:00:13.429Z,2.40
2022-10-11T18:02:41.425Z,2.40
2022-10-11T18:05:08.961Z,2.50
2022-10-11T18:07:35.958Z,2.30
2022-10-11T18:10:03.007Z,2.30
2022-10-11T18:12:30.122Z,2.50
2022-10-11T18:14:57.338Z,2.43
2022-10-11T18:17:24.343Z,2.60
2022-10-11T18:19:51.366Z,2.70
2022-10-11T18:22:18.370Z,2.40
2022-10-11T18:24:45.432Z,2.65
2022-10-11T18:30:35.503Z,2.50
2022-10-11T18:33:02.484Z,2.40
2022-10-11T18:35:29.535Z,2.58
2022-10-11T18:38:00.770Z,2.30
2022-10-11T18:40:28.277Z,2.33
2022-10-11T18:42:55.289Z,2.40
2022-10-11T18:45:22.294Z,2.80
2022-10-11T18:47:52.537Z,2.50
2022-10-11T18:50:19.747Z,2.30
2022-10-11T18:52:48.497Z,2.42
2022-10-11T18:55:16.045Z,2.53
2022-10-11T18:57:43.073Z,2.58
2022-10-11T19:00:23.352Z,2.60
2022-10-11T19:02:57.556Z,2.40
2022-10-11T19:05:24.596Z,2.42
2022-10-11T19:07:51.602Z,2.45
2022-10-11T19:10:18.679Z,2.50
2022-10-11T19:12:45.694Z,2.42
2022-10-11T19:15:12.857Z,2.50
2022-10-11T19:17:39.861Z,2.90
2022-10-11T19:20:07.055Z,2.57
2022-10-11T19:22:34.051Z,2.70
2022-10-11T19:25:01.082Z,2.58
2022-10-11T19:27:28.149Z,2.55
2022-10-11T19:29:55.190Z,2.65
2022-10-11T19:32:22.184Z,2.50
2022-10-11T19:34:52.627Z,2.70
2022-10-11T19:37:19.646Z,2.60
2022-10-11T19:40:33.144Z,2.63
2022-10-11T19:43:01.020Z,2.47
2022-10-11T19:45:28.335Z,2.50
2022-10-11T19:47:55.366Z,2.50
2022-10-11T19:50:22.380Z,2.77
2022-10-11T19:52:49.816Z,2.95
2022-10-11T19:55:16.878Z,2.90
2022-10-11T19:57:43.895Z,2.70
2022-10-11T20:00:15.253Z,2.40
2022-10-11T20:02:42.387Z,2.87
2022-10-11T20:05:09.471Z,2.40
2022-10-11T20:07:36.493Z,2.80
2022-10-11T20:10:03.542Z,2.53
2022-10-11T20:12:31.236Z,2.50
2022-10-11T20:14:58.485Z,2.70
2022-10-11T20:17:45.651Z,2.63
2022-10-11T20:20:12.702Z,2.45
2022-10-11T20:22:39.723Z,2.88
2022-10-11T20:25:07.240Z,2.87
2022-10-11T20:27:34.674Z,2.67
2022-10-11T20:30:01.897Z,2.53
2022-10-11T20:32:29.042Z,2.90
2022-10-11T20:34:56.056Z,2.90
2022-10-11T20:37:23.056Z,2.70
2022-10-11T20:39:50.187Z,2.42
2022-10-11T20:42:17.190Z,2.60
2022-10-11T20:44:44.480Z,2.58
2022-10-11T20:47:11.475Z,2.70
2022-10-11T20:49:38.481Z,2.50
2022-10-11T20:52:05.585Z,2.70
2022-10-11T20:54:34.640Z,2.60
2022-10-11T20:57:01.689Z,2.65
2022-10-11T20:59:28.749Z,2.97
2022-10-11T21:01:55.781Z,2.70
2022-10-11T21:07:55.735Z,2.67
2022-10-11T21:10:22.776Z,2.78
2022-10-11T21:12:49.816Z,2.80
2022-10-11T21:15:16.892Z,2.70
2022-10-11T21:17:43.919Z,2.67
2022-10-11T21:20:10.965Z,2.70
2022-10-11T21:22:37.987Z,2.88
2022-10-11T21:25:05.180Z,2.65
2022-10-11T21:27:32.594Z,2.60
2022-10-11T21:29:59.780Z,2.70
2022-10-11T21:32:26.843Z,2.80
2022-10-11T21:34:53.924Z,2.88
2022-10-11T21:37:20.939Z,2.78
2022-10-11T21:39:47.948Z,2.70
2022-10-11T21:42:15.065Z,2.90
2022-10-11T21:44:43.434Z,2.65
2022-10-11T21:47:10.888Z,2.58
2022-10-11T21:49:37.906Z,2.78
2022-10-11T21:52:05.601Z,2.67
2022-10-11T21:54:32.755Z,2.60
2022-10-11T21:56:59.766Z,2.92
2022-10-11T21:59:26.888Z,2.80
2022-10-11T22:01:57.021Z,2.90
2022-10-11T22:04:28.044Z,2.77
2022-10-11T22:06:55.021Z,3.05
2022-10-11T22:09:25.944Z,2.60
2022-10-11T22:11:53.084Z,2.90
2022-10-11T22:14:24.458Z,2.90
2022-10-11T22:16:51.487Z,2.80
2022-10-11T22:19:18.519Z,3.00
2022-10-11T22:21:45.581Z,2.90
2022-10-11T22:24:12.864Z,2.72
2022-10-11T22:26:39.868Z,3.00
2022-10-11T22:29:06.909Z,2.70
2022-10-11T22:31:38.971Z,3.07
2022-10-11T22:34:06.044Z,2.70
2022-10-11T22:36:33.727Z,3.00
2022-10-11T22:39:00.832Z,2.88
2022-10-11T22:41:27.859Z,2.90
2022-10-11T22:43:54.863Z,3.00
2022-10-11T22:46:22.147Z,3.00
2022-10-11T22:48:49.385Z,2.72
2022-10-11T22:51:16.743Z,2.80
2022-10-11T22:53:43.766Z,3.00
2022-10-11T22:56:11.179Z,2.97
2022-10-11T22:58:38.471Z,2.95
2022-10-11T23:01:09.613Z,2.80
2022-10-11T23:03:36.824Z,2.70
2022-10-11T23:06:04.295Z,2.97
2022-10-11T23:08:31.298Z,2.90
2022-10-11T23:11:02.735Z,2.90
2022-10-11T23:13:29.733Z,2.90
2022-10-11T23:15:56.739Z,2.80
2022-10-11T23:18:23.796Z,3.10
2022-10-11T23:20:50.789Z,2.88
2022-10-11T23:23:17.846Z,2.80
2022-10-11T23:25:45.041Z,2.85
2022-10-11T23:28:12.105Z,2.83
2022-10-11T23:30:40.242Z,2.90
2022-10-11T23:33:07.221Z,2.90
2022-10-11T23:35:35.301Z,2.80
2022-10-11T23:38:02.313Z,2.85
2022-10-11T23:40:29.320Z,2.83
2022-10-11T23:42:56.449Z,3.10
2022-10-11T23:45:23.502Z,2.83
2022-10-11T23:47:50.534Z,2.72
2022-10-11T23:50:17.570Z,2.80
2022-10-11T23:52:44.602Z,2.85
2022-10-11T23:55:11.784Z,2.97
2022-10-11T23:57:39.329Z,3.00
